createdAt,value
2024-01-25T00:00:51.216Z,84.58
2024-01-25T00:03:18.298Z,85.01
2024-01-25T00:05:44.897Z,84.65
2024-01-25T00:08:11.523Z,84.41
2024-01-25T00:10:37.985Z,85.17
2024-01-25T00:13:04.882Z,84.78
2024-01-25T00:15:31.559Z,85.17
2024-01-25T00:17:59.475Z,84.70
2024-01-25T00:20:26.155Z,84.99
2024-01-25T00:22:52.681Z,84.98
2024-01-25T00:25:19.436Z,85.36
2024-01-25T00:27:46.161Z,84.76
2024-01-25T00:30:13.208Z,85.11
2024-01-25T00:32:39.846Z,85.48
2024-01-25T00:35:09.293Z,83.90
2024-01-25T00:37:36.520Z,84.36
2024-01-25T00:40:03.598Z,84.02
2024-01-25T00:42:31.522Z,84.03
2024-01-25T00:44:58.911Z,85.42
2024-01-25T00:47:26.056Z,85.08
2024-01-25T00:49:53.255Z,84.72
2024-01-25T00:52:21.912Z,85.59
2024-01-25T00:54:49.005Z,84.47
2024-01-25T00:57:16.338Z,85.53
2024-01-25T00:59:43.428Z,85.10
2024-01-25T01:02:13.600Z,85.68
2024-01-25T01:04:47.379Z,84.92
2024-01-25T01:07:16.318Z,83.86
2024-01-25T01:09:44.395Z,85.44
2024-01-25T01:12:11.671Z,85.69
2024-01-25T01:14:38.230Z,84.83
2024-01-25T01:17:04.700Z,83.71
2024-01-25T01:19:31.342Z,85.12
2024-01-25T01:21:57.916Z,84.10
2024-01-25T01:24:24.453Z,84.40
2024-01-25T01:26:52.407Z,84.79
2024-01-25T01:29:19.683Z,84.11
2024-01-25T01:31:46.364Z,83.13
2024-01-25T01:34:13.081Z,83.99
2024-01-25T01:36:39.641Z,83.62
2024-01-25T01:39:06.412Z,82.66
2024-01-25T01:41:36.770Z,82.51
2024-01-25T01:44:04.857Z,83.46
2024-01-25T01:46:35.207Z,83.27
2024-01-25T01:49:02.245Z,82.56
2024-01-25T01:51:30.657Z,82.93
2024-01-25T01:54:01.457Z,82.78
2024-01-25T01:56:29.046Z,82.82
2024-01-25T01:58:57.149Z,82.49
2024-01-25T02:01:25.424Z,83.26
2024-01-25T02:03:52.248Z,82.53
2024-01-25T02:06:19.287Z,82.88
2024-01-25T02:08:46.036Z,83.15
2024-01-25T02:11:13.369Z,82.22
2024-01-25T02:13:39.854Z,82.74
2024-01-25T02:16:08.797Z,83.07
2024-01-25T02:18:37.059Z,83.65
2024-01-25T02:21:03.800Z,84.24
2024-01-25T02:23:33.876Z,83.89
2024-01-25T02:26:00.684Z,82.57
2024-01-25T02:28:27.159Z,83.89
2024-01-25T02:30:53.782Z,83.51
2024-01-25T02:33:21.195Z,84.09
2024-01-25T02:35:47.777Z,83.29
2024-01-25T02:38:14.259Z,83.53
2024-01-25T02:40:42.078Z,83.61
2024-01-25T02:43:08.573Z,83.92
2024-01-25T02:45:35.167Z,84.36
2024-01-25T02:48:01.810Z,83.03
2024-01-25T02:50:28.370Z,82.84
2024-01-25T02:52:54.957Z,84.20
2024-01-25T02:55:21.826Z,84.42
2024-01-25T02:57:49.758Z,84.11
2024-01-25T03:00:16.654Z,83.66
2024-01-25T03:02:43.237Z,84.00
2024-01-25T03:05:09.884Z,84.65
2024-01-25T03:07:36.562Z,85.17
2024-01-25T03:10:03.378Z,85.46
2024-01-25T03:12:30.052Z,86.22
2024-01-25T03:14:57.854Z,86.30
2024-01-25T03:17:24.359Z,87.84
2024-01-25T03:19:51.009Z,87.02
2024-01-25T03:22:17.841Z,87.55
2024-01-25T03:24:44.418Z,87.71
2024-01-25T03:27:11.302Z,87.87
2024-01-25T03:29:37.748Z,87.86
2024-01-25T03:32:06.157Z,88.62
2024-01-25T03:34:32.685Z,88.53
2024-01-25T03:36:59.257Z,88.12
2024-01-25T03:39:25.995Z,88.53
2024-01-25T03:41:52.480Z,88.92
2024-01-25T03:44:19.554Z,89.33
2024-01-25T03:46:46.034Z,89.43
2024-01-25T03:49:14.036Z,89.90
2024-01-25T03:51:40.797Z,89.94
2024-01-25T03:54:07.394Z,90.86
2024-01-25T03:56:33.869Z,90.27
2024-01-25T03:59:00.364Z,89.69
2024-01-25T04:01:30.772Z,90.83
2024-01-25T04:03:58.479Z,90.73
2024-01-25T04:06:26.376Z,90.46
2024-01-25T04:08:53.070Z,91.25
2024-01-25T04:11:19.566Z,90.62
2024-01-25T04:13:46.106Z,91.12
2024-01-25T04:16:15.016Z,90.72
2024-01-25T04:18:41.800Z,91.30
2024-01-25T04:21:08.387Z,90.64
2024-01-25T04:23:36.332Z,90.21
2024-01-25T04:26:02.897Z,89.75
2024-01-25T04:28:29.543Z,90.18
2024-01-25T04:30:56.165Z,89.15
2024-01-25T04:33:22.842Z,89.27
2024-01-25T04:35:49.778Z,88.70
2024-01-25T04:38:16.485Z,89.16
2024-01-25T04:40:44.290Z,88.94
2024-01-25T04:43:11.056Z,89.18
2024-01-25T04:45:37.612Z,87.60
2024-01-25T04:48:04.909Z,86.59
2024-01-25T04:50:31.810Z,87.30
2024-01-25T04:52:59.729Z,88.29
2024-01-25T04:55:27.314Z,88.14
2024-01-25T04:57:55.191Z,87.74
2024-01-25T05:00:22.759Z,87.21
2024-01-25T05:02:49.276Z,87.48
2024-01-25T05:05:15.869Z,88.00
2024-01-25T05:07:42.812Z,87.71
2024-01-25T05:10:10.139Z,87.81
2024-01-25T05:12:36.799Z,87.96
2024-01-25T05:15:05.652Z,86.69
2024-01-25T05:17:32.763Z,87.50
2024-01-25T05:19:59.391Z,87.33
2024-01-25T05:22:26.130Z,87.89
2024-01-25T05:24:52.727Z,87.88
2024-01-25T05:27:19.514Z,87.88
2024-01-25T05:29:46.061Z,87.57
2024-01-25T05:32:13.832Z,87.46
2024-01-25T05:34:40.434Z,86.88
2024-01-25T05:37:07.069Z,87.46
2024-01-25T05:39:35.426Z,87.40
2024-01-25T05:42:04.521Z,86.30
2024-01-25T05:44:33.934Z,86.35
2024-01-25T05:47:00.458Z,85.80
2024-01-25T05:49:28.685Z,87.17
2024-01-25T05:51:55.230Z,85.60
2024-01-25T05:54:21.831Z,85.85
2024-01-25T05:56:48.363Z,86.15
2024-01-25T05:59:14.827Z,85.28
2024-01-25T06:01:41.515Z,86.03
2024-01-25T06:04:08.194Z,85.37
2024-01-25T06:06:36.365Z,85.60
2024-01-25T06:09:11.734Z,86.27
2024-01-25T06:11:39.855Z,84.87
2024-01-25T06:14:07.536Z,83.99
2024-01-25T06:16:34.107Z,84.62
2024-01-25T06:19:00.700Z,84.26
2024-01-25T06:21:27.379Z,84.50
2024-01-25T06:23:55.105Z,83.88
2024-01-25T06:26:21.693Z,84.11
2024-01-25T06:28:48.306Z,83.57
2024-01-25T06:31:15.639Z,84.45
2024-01-25T06:33:42.450Z,83.67
2024-01-25T06:36:09.269Z,83.67
2024-01-25T06:38:35.747Z,84.17
2024-01-25T06:41:03.629Z,84.74
2024-01-25T06:43:30.178Z,84.77
2024-01-25T06:45:56.864Z,84.58
2024-01-25T06:48:23.622Z,84.36
2024-01-25T06:50:50.336Z,83.61
2024-01-25T06:53:17.090Z,84.32
2024-01-25T06:55:43.763Z,83.63
2024-01-25T06:58:11.804Z,84.38
2024-01-25T07:00:38.754Z,83.98
2024-01-25T07:03:06.002Z,84.30
2024-01-25T07:05:32.885Z,85.43
2024-01-25T07:07:59.492Z,83.43
2024-01-25T07:10:25.973Z,84.25
2024-01-25T07:12:52.470Z,84.09
2024-01-25T07:15:20.745Z,84.65
2024-01-25T07:17:48.514Z,84.76
2024-01-25T07:20:15.304Z,84.97
2024-01-25T07:22:42.123Z,84.65
2024-01-25T07:25:09.010Z,85.60
2024-01-25T07:27:35.689Z,85.98
2024-01-25T07:30:02.298Z,86.61
2024-01-25T07:32:30.289Z,86.17
2024-01-25T07:34:56.923Z,86.16
2024-01-25T07:37:23.558Z,86.35
2024-01-25T07:39:50.201Z,84.90
2024-01-25T07:42:17.163Z,84.74
2024-01-25T07:44:43.624Z,86.66
2024-01-25T07:47:10.157Z,85.91
2024-01-25T07:49:38.221Z,86.96
2024-01-25T07:52:05.007Z,87.66
2024-01-25T07:54:31.861Z,87.32
2024-01-25T07:56:58.990Z,87.20
2024-01-25T07:59:25.629Z,88.73
2024-01-25T08:01:52.106Z,89.09
2024-01-25T08:04:18.664Z,89.95
2024-01-25T08:06:46.577Z,88.30
2024-01-25T08:09:13.069Z,89.37
2024-01-25T08:11:40.125Z,88.62
2024-01-25T08:14:06.929Z,88.95
2024-01-25T08:16:33.726Z,88.51
2024-01-25T08:19:00.510Z,89.48
2024-01-25T08:21:27.174Z,88.37
2024-01-25T08:23:54.979Z,88.84
2024-01-25T08:26:21.482Z,88.21
2024-01-25T08:28:48.115Z,88.91
2024-01-25T08:31:15.038Z,89.37
2024-01-25T08:33:41.978Z,88.91
2024-01-25T08:36:08.659Z,88.46
2024-01-25T08:38:35.157Z,87.86
2024-01-25T08:41:02.925Z,88.93
2024-01-25T08:43:29.432Z,87.73
2024-01-25T08:45:55.963Z,87.65
2024-01-25T08:48:22.525Z,88.13
2024-01-25T08:50:49.201Z,86.92
2024-01-25T08:53:15.704Z,86.79
2024-01-25T08:55:42.137Z,86.87
2024-01-25T08:58:10.083Z,87.47
2024-01-25T09:00:36.640Z,86.68
2024-01-25T09:03:03.327Z,85.62
2024-01-25T09:05:30.082Z,86.19
2024-01-25T09:07:56.992Z,85.56
2024-01-25T09:10:23.622Z,85.69
2024-01-25T09:12:50.198Z,84.76
2024-01-25T09:15:18.074Z,84.80
2024-01-25T09:17:44.599Z,85.38
2024-01-25T09:20:11.750Z,85.30
2024-01-25T09:22:38.355Z,85.48
2024-01-25T09:25:07.103Z,85.46
2024-01-25T09:27:35.086Z,85.59
2024-01-25T09:30:01.601Z,84.50
2024-01-25T09:32:29.759Z,85.95
2024-01-25T09:34:56.546Z,85.63
2024-01-25T09:37:24.039Z,84.53
2024-01-25T09:39:50.605Z,82.86
2024-01-25T09:42:18.363Z,82.47
2024-01-25T09:44:45.058Z,82.42
2024-01-25T09:47:12.171Z,81.38
2024-01-25T09:49:40.221Z,81.18
2024-01-25T09:52:12.898Z,81.49
2024-01-25T09:54:40.263Z,80.89
2024-01-25T09:57:14.149Z,81.57
2024-01-25T09:59:41.701Z,80.86
2024-01-25T10:02:10.017Z,80.22
2024-01-25T10:04:36.598Z,80.03
2024-01-25T10:07:05.060Z,79.88
2024-01-25T10:09:38.742Z,79.17
2024-01-25T10:12:18.150Z,78.82
2024-01-25T10:14:51.138Z,78.65
2024-01-25T10:17:17.995Z,78.57
2024-01-25T10:19:46.229Z,77.51
2024-01-25T10:22:16.449Z,77.55
2024-01-25T10:24:49.108Z,77.77
2024-01-25T10:27:22.790Z,77.14
2024-01-25T10:29:58.616Z,76.04
2024-01-25T10:32:27.953Z,74.43
2024-01-25T10:34:55.058Z,74.24
2024-01-25T10:37:24.084Z,73.95
2024-01-25T10:39:50.837Z,71.33
2024-01-25T10:42:17.544Z,72.00
2024-01-25T10:44:44.384Z,71.99
2024-01-25T10:47:11.528Z,73.81
2024-01-25T10:49:38.451Z,72.96
2024-01-25T10:52:07.246Z,74.30
2024-01-25T10:54:35.415Z,73.23
2024-01-25T10:57:01.881Z,74.87
2024-01-25T10:59:29.259Z,75.75
2024-01-25T11:01:56.162Z,75.04
2024-01-25T11:04:23.011Z,75.84
2024-01-25T11:06:50.242Z,76.00
2024-01-25T11:09:19.540Z,75.65
2024-01-25T11:11:49.423Z,75.05
2024-01-25T11:14:16.455Z,76.21
2024-01-25T11:16:44.007Z,75.45
2024-01-25T11:19:20.172Z,74.70
2024-01-25T11:21:48.083Z,74.19
2024-01-25T11:24:15.525Z,73.67
2024-01-25T11:26:44.211Z,71.14
2024-01-25T11:29:14.201Z,70.71
2024-01-25T11:31:40.687Z,70.57
2024-01-25T11:34:07.295Z,69.59
2024-01-25T11:36:33.904Z,70.58
2024-01-25T11:39:00.502Z,71.17
2024-01-25T11:41:27.148Z,72.63
2024-01-25T11:43:53.984Z,72.32
2024-01-25T11:46:22.989Z,73.49
2024-01-25T11:48:49.713Z,74.23
2024-01-25T11:51:16.319Z,72.83
2024-01-25T11:53:42.844Z,73.71
2024-01-25T11:56:11.793Z,73.33
2024-01-25T11:58:42.077Z,73.98
2024-01-25T12:01:10.195Z,72.76
2024-01-25T12:03:38.731Z,73.23
2024-01-25T12:06:05.897Z,73.19
2024-01-25T12:08:33.013Z,71.84
2024-01-25T12:11:06.828Z,72.92
2024-01-25T12:13:34.396Z,73.47
2024-01-25T12:16:01.176Z,71.71
2024-01-25T12:18:27.969Z,72.60
2024-01-25T12:20:55.881Z,70.44
2024-01-25T12:23:22.441Z,70.79
2024-01-25T12:25:49.041Z,70.99
2024-01-25T12:28:16.188Z,70.41
2024-01-25T12:30:42.703Z,71.64
2024-01-25T12:33:09.278Z,73.26
2024-01-25T12:35:36.087Z,72.64
2024-01-25T12:38:04.080Z,72.10
2024-01-25T12:40:31.304Z,72.97
2024-01-25T12:42:58.105Z,71.71
2024-01-25T12:45:24.593Z,72.57
2024-01-25T12:47:51.274Z,71.20
2024-01-25T12:50:17.861Z,71.35
2024-01-25T12:52:44.422Z,71.53
2024-01-25T12:55:12.434Z,71.92
2024-01-25T12:57:39.952Z,72.47
2024-01-25T13:00:07.996Z,70.93
2024-01-25T13:02:34.446Z,72.24
2024-01-25T13:05:01.078Z,72.37
2024-01-25T13:07:28.607Z,71.82
2024-01-25T13:09:55.186Z,72.26
2024-01-25T13:12:23.087Z,73.15
2024-01-25T13:14:49.533Z,70.91
2024-01-25T13:17:15.956Z,71.08
2024-01-25T13:19:42.514Z,70.70
2024-01-25T13:22:09.119Z,71.76
2024-01-25T13:24:35.734Z,71.35
2024-01-25T13:27:04.309Z,71.31
2024-01-25T13:29:32.168Z,72.65
2024-01-25T13:31:58.765Z,71.77
2024-01-25T13:34:27.158Z,73.09
2024-01-25T13:36:53.765Z,72.66
2024-01-25T13:39:20.348Z,72.49
2024-01-25T13:41:46.876Z,72.37
2024-01-25T13:44:14.607Z,72.70
2024-01-25T13:46:42.536Z,72.70
2024-01-25T13:49:09.181Z,73.67
2024-01-25T13:51:35.691Z,73.20
2024-01-25T13:54:05.256Z,73.78
2024-01-25T13:56:31.722Z,74.04
2024-01-25T13:58:58.359Z,74.72
2024-01-25T14:01:25.189Z,74.18
2024-01-25T14:03:53.124Z,74.74
2024-01-25T14:06:20.120Z,75.66
2024-01-25T14:08:46.890Z,75.19
2024-01-25T14:11:13.405Z,75.53
2024-01-25T14:13:40.106Z,76.46
2024-01-25T14:16:09.062Z,76.02
2024-01-25T14:18:37.997Z,76.35
2024-01-25T14:21:06.288Z,77.24
2024-01-25T14:23:38.765Z,76.92
2024-01-25T14:26:05.784Z,76.67
2024-01-25T14:28:32.497Z,77.41
2024-01-25T14:30:59.364Z,78.51
2024-01-25T14:33:26.230Z,78.86
2024-01-25T14:35:52.825Z,78.88
2024-01-25T14:38:20.669Z,78.53
2024-01-25T14:40:56.368Z,78.85
2024-01-25T14:43:24.874Z,79.25
2024-01-25T14:45:51.482Z,79.18
2024-01-25T14:48:18.277Z,79.62
2024-01-25T14:50:44.996Z,80.59
2024-01-25T14:53:12.007Z,79.96
2024-01-25T14:55:39.891Z,80.27
2024-01-25T14:58:06.332Z,80.92
2024-01-25T15:00:32.925Z,81.81
2024-01-25T15:02:59.431Z,81.17
2024-01-25T15:05:25.852Z,80.94
2024-01-25T15:07:52.329Z,80.50
2024-01-25T15:10:18.823Z,81.31
2024-01-25T15:12:47.021Z,82.06
2024-01-25T15:15:13.957Z,81.86
2024-01-25T15:17:40.501Z,83.11
2024-01-25T15:20:08.289Z,83.03
2024-01-25T15:22:34.873Z,83.18
2024-01-25T15:25:01.413Z,83.92
2024-01-25T15:27:27.915Z,83.75
2024-01-25T15:29:55.799Z,84.22
2024-01-25T15:32:22.286Z,85.08
2024-01-25T15:34:48.785Z,85.08
2024-01-25T15:37:15.279Z,85.46
2024-01-25T15:39:41.800Z,85.68
2024-01-25T15:42:08.266Z,85.59
2024-01-25T15:44:34.844Z,86.06
2024-01-25T15:47:02.656Z,85.99
2024-01-25T15:49:29.118Z,86.37
2024-01-25T15:51:55.722Z,86.46
2024-01-25T15:54:22.285Z,87.19
2024-01-25T15:56:48.791Z,87.72
2024-01-25T15:59:15.280Z,88.13
2024-01-25T16:01:41.784Z,87.97
2024-01-25T16:04:09.641Z,87.94
2024-01-25T16:06:36.371Z,88.58
2024-01-25T16:09:03.898Z,87.93
2024-01-25T16:11:30.516Z,88.86
2024-01-25T16:13:57.004Z,88.87
2024-01-25T16:16:23.503Z,89.00
2024-01-25T16:18:50.227Z,89.04
2024-01-25T16:21:18.456Z,90.06
2024-01-25T16:23:44.948Z,89.73
2024-01-25T16:26:11.647Z,90.48
2024-01-25T16:28:38.212Z,90.55
2024-01-25T16:31:05.213Z,90.72
2024-01-25T16:33:31.807Z,90.88
2024-01-25T16:35:59.154Z,91.53
2024-01-25T16:38:28.215Z,91.69
2024-01-25T16:40:54.803Z,91.87
2024-01-25T16:43:21.356Z,92.90
2024-01-25T16:45:49.774Z,91.95
2024-01-25T16:48:20.110Z,92.29
2024-01-25T16:50:48.037Z,92.42
2024-01-25T16:53:14.633Z,91.81
2024-01-25T16:55:42.486Z,92.04
2024-01-25T16:58:08.987Z,92.28
2024-01-25T17:00:35.519Z,91.70
2024-01-25T17:03:01.967Z,91.32
2024-01-25T17:05:28.521Z,91.21
2024-01-25T17:07:55.014Z,91.80
2024-01-25T17:10:21.549Z,92.48
2024-01-25T17:12:49.444Z,91.76
2024-01-25T17:15:16.817Z,92.23
2024-01-25T17:17:45.037Z,91.38
2024-01-25T17:20:14.810Z,92.17
2024-01-25T17:22:41.356Z,92.35
2024-01-25T17:25:07.910Z,92.32
2024-01-25T17:27:34.423Z,92.29
2024-01-25T17:30:02.334Z,92.82
2024-01-25T17:32:28.961Z,92.55
2024-01-25T17:34:56.114Z,93.81
2024-01-25T17:37:22.721Z,93.50
2024-01-25T17:39:49.260Z,93.77
2024-01-25T17:42:15.932Z,93.04
2024-01-25T17:44:42.466Z,93.59
2024-01-25T17:47:10.409Z,93.76
2024-01-25T17:49:36.981Z,94.13
2024-01-25T17:52:03.780Z,94.66
2024-01-25T17:54:30.486Z,95.12
2024-01-25T17:57:00.212Z,95.19
2024-01-25T17:59:26.663Z,95.51
2024-01-25T18:01:53.205Z,96.26
2024-01-25T18:04:21.232Z,95.52
2024-01-25T18:06:47.883Z,96.51
2024-01-25T18:09:16.191Z,96.67
2024-01-25T18:11:42.763Z,97.11
2024-01-25T18:14:09.305Z,97.39
2024-01-25T18:16:35.850Z,97.02
2024-01-25T18:19:08.857Z,98.93
2024-01-25T18:21:41.988Z,98.09
2024-01-25T18:24:08.837Z,99.60
2024-01-25T18:26:35.391Z,100.00
2024-01-25T18:29:01.931Z,100.00
2024-01-25T18:31:28.516Z,100.00
2024-01-25T18:33:55.179Z,100.00
2024-01-25T18:36:21.903Z,100.00
2024-01-25T18:38:52.382Z,100.00
2024-01-25T18:41:18.882Z,100.00
2024-01-25T18:43:45.461Z,100.00
2024-01-25T18:46:11.986Z,100.00
2024-01-25T18:48:38.907Z,100.00
2024-01-25T18:51:05.499Z,100.00
2024-01-25T18:53:32.650Z,100.00
2024-01-25T18:56:04.241Z,100.00
2024-01-25T18:58:34.150Z,100.00
2024-01-25T19:01:04.068Z,100.00
2024-01-25T19:03:31.669Z,100.00
2024-01-25T19:05:58.876Z,100.00
2024-01-25T19:08:26.065Z,100.00
2024-01-25T19:10:52.611Z,100.00
2024-01-25T19:13:21.003Z,100.00
2024-01-25T19:15:47.621Z,100.00
2024-01-25T19:18:14.351Z,100.00
2024-01-25T19:20:40.942Z,100.00
2024-01-25T19:23:07.625Z,100.00
2024-01-25T19:25:34.195Z,100.00
2024-01-25T19:28:03.977Z,100.00
2024-01-25T19:30:31.895Z,100.00
2024-01-25T19:32:58.583Z,100.00
2024-01-25T19:35:25.072Z,100.00
2024-01-25T19:37:51.651Z,100.00
2024-01-25T19:40:21.403Z,100.00
2024-01-25T19:42:47.998Z,100.00
2024-01-25T19:45:14.883Z,100.00
2024-01-25T19:47:42.902Z,100.00
2024-01-25T19:50:11.743Z,100.00
2024-01-25T19:52:41.036Z,100.00
2024-01-25T19:55:13.135Z,100.00
2024-01-25T19:57:40.191Z,100.00
2024-01-25T20:00:07.881Z,100.00
2024-01-25T20:02:37.199Z,100.00
2024-01-25T20:05:11.294Z,100.00
2024-01-25T20:07:38.698Z,100.00
2024-01-25T20:10:06.210Z,100.00
2024-01-25T20:12:33.829Z,100.00
2024-01-25T20:15:00.611Z,100.00
2024-01-25T20:17:27.180Z,100.00
2024-01-25T20:19:54.082Z,100.00
2024-01-25T20:22:23.326Z,100.00
2024-01-25T20:24:50.192Z,100.00
2024-01-25T20:27:16.823Z,100.00
2024-01-25T20:29:43.438Z,100.00
2024-01-25T20:32:09.988Z,100.00
2024-01-25T20:34:36.820Z,100.00
2024-01-25T20:37:03.740Z,100.00
2024-01-25T20:39:33.476Z,100.00
2024-01-25T20:42:01.869Z,100.00
2024-01-25T20:44:28.678Z,100.00
2024-01-25T20:46:55.336Z,100.00
2024-01-25T20:49:22.129Z,100.00
2024-01-25T20:51:48.898Z,100.00
2024-01-25T20:54:15.699Z,100.00
2024-01-25T20:56:43.759Z,100.00
2024-01-25T20:59:10.372Z,100.00
2024-01-25T21:01:37.493Z,100.00
2024-01-25T21:04:04.821Z,100.00
2024-01-25T21:06:32.290Z,100.00
2024-01-25T21:08:59.396Z,100.00
2024-01-25T21:11:26.635Z,100.00
2024-01-25T21:13:58.406Z,100.00
2024-01-25T21:16:25.761Z,100.00
2024-01-25T21:18:52.565Z,100.00
2024-01-25T21:21:19.502Z,100.00
2024-01-25T21:23:46.073Z,100.00
2024-01-25T21:26:12.858Z,100.00
2024-01-25T21:28:39.597Z,100.00
2024-01-25T21:31:07.681Z,100.00
2024-01-25T21:33:34.404Z,100.00
2024-01-25T21:36:00.982Z,100.00
2024-01-25T21:38:27.509Z,100.00
2024-01-25T21:40:54.063Z,100.00
2024-01-25T21:43:20.731Z,100.00
2024-01-25T21:45:47.722Z,100.00
2024-01-25T21:48:16.291Z,100.00
2024-01-25T21:50:43.626Z,100.00
2024-01-25T21:53:10.202Z,100.00
2024-01-25T21:55:37.584Z,100.00
2024-01-25T21:58:04.459Z,100.00
2024-01-25T22:00:31.286Z,100.00
2024-01-25T22:02:58.159Z,100.00
2024-01-25T22:05:27.424Z,100.00
2024-01-25T22:07:56.541Z,100.00
2024-01-25T22:10:24.576Z,100.00
2024-01-25T22:12:51.749Z,100.00
2024-01-25T22:15:20.894Z,100.00
2024-01-25T22:17:47.509Z,100.00
2024-01-25T22:20:14.739Z,100.00
2024-01-25T22:22:42.636Z,100.00
2024-01-25T22:25:09.742Z,100.00
2024-01-25T22:27:36.546Z,100.00
2024-01-25T22:30:03.484Z,100.00
2024-01-25T22:32:30.012Z,100.00
2024-01-25T22:34:56.626Z,100.00
2024-01-25T22:37:23.375Z,100.00
2024-01-25T22:39:51.475Z,100.00
2024-01-25T22:42:19.669Z,100.00
2024-01-25T22:44:46.166Z,100.00
2024-01-25T22:47:12.801Z,100.00
2024-01-25T22:49:39.366Z,100.00
2024-01-25T22:52:06.270Z,100.00
2024-01-25T22:54:33.106Z,100.00
2024-01-25T22:57:01.124Z,100.00
2024-01-25T22:59:27.930Z,100.00
2024-01-25T23:01:54.608Z,100.00
2024-01-25T23:04:21.207Z,100.00
2024-01-25T23:06:48.501Z,100.00
2024-01-25T23:09:17.848Z,100.00
2024-01-25T23:11:44.619Z,100.00
2024-01-25T23:14:15.035Z,100.00
2024-01-25T23:16:41.621Z,100.00
2024-01-25T23:19:08.282Z,100.00
2024-01-25T23:21:34.892Z,100.00
2024-01-25T23:24:01.473Z,100.00
2024-01-25T23:26:28.144Z,100.00
2024-01-25T23:28:54.721Z,100.00
2024-01-25T23:31:22.595Z,100.00
2024-01-25T23:33:49.457Z,100.00
2024-01-25T23:36:16.306Z,100.00
2024-01-25T23:38:42.932Z,100.00
2024-01-25T23:41:12.372Z,100.00
2024-01-25T23:43:39.080Z,100.00
2024-01-25T23:46:05.795Z,100.00
2024-01-25T23:48:34.081Z,100.00
2024-01-25T23:51:03.087Z,100.00
2024-01-25T23:53:29.640Z,100.00
2024-01-25T23:55:58.964Z,100.00
2024-01-25T23:58:26.114Z,100.00
